Time;durP1;ratioP1;P1;durP2;ratioP2;P2;SDS_P1;SDS_P2;PMS_P1;PMS_P2;Temp;Humidity;BMP_temperature;BMP_pressure;BME280_temperature;BME280_humidity;BME280_pressure;Samples;Min_cycle;Max_cycle;Signal;HPM_P1;HPM_P2
2021/08/05 00:01:51;;;;;;;2.00;1.60;;;;;;;22.64;100.00;97059.63;5004066;28;20203;-64
2021/08/05 00:04:18;;;;;;;2.90;1.70;;;;;;;22.62;100.00;97053.59;5006842;28;20587;-62
2021/08/05 00:06:44;;;;;;;1.90;1.70;;;;;;;22.62;100.00;97052.75;5003371;28;20321;-65
2021/08/05 00:09:11;;;;;;;1.83;1.50;;;;;;;22.60;100.00;97054.41;4995725;28;20746;-60
2021/08/05 00:11:37;;;;;;;1.77;1.67;;;;;;;22.34;100.00;97009.53;5007686;28;20638;-64
2021/08/05 00:14:04;;;;;;;1.90;1.67;;;;;;;22.41;100.00;97021.63;4976305;28;20206;-65
2021/08/05 00:16:31;;;;;;;2.13;1.60;;;;;;;22.04;100.00;96965.47;5004100;28;20313;-65
2021/08/05 00:18:57;;;;;;;2.23;1.70;;;;;;;22.49;100.00;97022.59;4998152;28;20198;-65
2021/08/05 00:21:24;;;;;;;1.60;1.50;;;;;;;22.58;100.00;97040.72;5003028;28;20639;-65
2021/08/05 00:23:51;;;;;;;1.63;1.53;;;;;;;22.59;100.00;97039.91;4997762;28;20295;-65
2021/08/05 00:26:17;;;;;;;2.10;1.63;;;;;;;21.56;100.00;96866.47;5005808;28;20230;-61
2021/08/05 00:28:44;;;;;;;1.50;1.40;;;;;;;22.13;100.00;96957.94;4999366;28;20750;-64
2021/08/05 00:31:10;;;;;;;1.50;1.40;;;;;;;22.47;100.00;97020.00;5009289;28;20297;-65
2021/08/05 00:33:37;;;;;;;2.80;1.40;;;;;;;22.59;100.00;97035.63;4974129;28;20304;-65
2021/08/05 00:36:04;;;;;;;2.10;1.60;;;;;;;22.55;100.00;97022.75;5008261;28;20270;-65
2021/08/05 00:38:31;;;;;;;2.67;1.70;;;;;;;22.60;100.00;97033.94;5006813;28;20575;-65
2021/08/05 00:40:57;;;;;;;1.70;1.60;;;;;;;22.61;100.00;97033.97;5002123;28;20234;-64
2021/08/05 00:43:24;;;;;;;2.00;1.43;;;;;;;22.61;100.00;97031.41;5010319;28;20234;-65
2021/08/05 00:45:50;;;;;;;2.23;1.57;;;;;;;22.59;100.00;97027.09;5002296;28;20316;-64
2021/08/05 00:48:17;;;;;;;1.40;1.30;;;;;;;22.61;100.00;97028.84;5006274;28;20219;-65
2021/08/05 00:50:43;;;;;;;1.67;1.57;;;;;;;22.62;100.00;97032.28;5006687;28;20226;-64
2021/08/05 00:53:10;;;;;;;1.67;1.50;;;;;;;22.62;100.00;97027.16;5004569;28;20225;-65
2021/08/05 00:55:37;;;;;;;3.73;1.80;;;;;;;21.79;100.00;96892.50;5007574;28;20253;-65
2021/08/05 00:58:03;;;;;;;1.70;1.60;;;;;;;21.18;100.00;96782.25;5011593;28;20253;-65
2021/08/05 01:00:30;;;;;;;1.63;1.53;;;;;;;22.64;100.00;97028.00;5007451;28;20233;-65
2021/08/05 01:02:59;;;;;;;1.73;1.63;;;;;;;22.63;100.00;97024.63;4997797;28;20252;-66
2021/08/05 01:05:27;;;;;;;2.70;1.77;;;;;;;21.61;100.00;96852.09;4986587;28;20326;-64
2021/08/05 01:08:01;;;;;;;1.93;1.80;;;;;;;22.63;100.00;97023.75;5008089;28;20237;-66
2021/08/05 01:10:37;;;;;;;1.60;1.50;;;;;;;22.51;100.00;97001.34;5002182;28;20206;-64
2021/08/05 01:13:17;;;;;;;1.90;1.70;;;;;;;22.62;100.00;97019.47;4998918;28;20301;-65
2021/08/05 01:15:44;;;;;;;1.93;1.50;;;;;;;22.61;100.00;97010.91;4981682;28;20741;-64
2021/08/05 01:18:22;;;;;;;1.73;1.40;;;;;;;22.60;100.00;97016.88;4972646;28;20233;-64
2021/08/05 01:20:49;;;;;;;3.33;1.60;;;;;;;22.59;100.00;97014.28;4978586;28;20633;-65
2021/08/05 01:23:28;;;;;;;1.93;1.60;;;;;;;22.57;100.00;97014.25;4991285;28;20206;-65
2021/08/05 01:25:58;;;;;;;1.60;1.50;;;;;;;22.56;100.00;97015.06;5008450;28;20261;-65
2021/08/05 01:28:25;;;;;;;1.70;1.60;;;;;;;22.52;100.00;97007.31;4986050;28;20261;-65
2021/08/05 01:30:51;;;;;;;2.10;1.73;;;;;;;22.57;100.00;97021.06;5006388;28;20293;-65
2021/08/05 01:33:19;;;;;;;1.50;1.40;;;;;;;22.57;100.00;97013.38;4989540;28;20298;-65
2021/08/05 01:35:48;;;;;;;1.57;1.40;;;;;;;22.57;100.00;97013.38;4990043;28;20261;-65
2021/08/05 01:38:14;;;;;;;1.70;1.60;;;;;;;22.52;100.00;97003.06;5004082;28;20245;-65
2021/08/05 01:40:41;;;;;;;1.50;1.40;;;;;;;22.58;100.00;97013.41;4987623;28;20230;-64
2021/08/05 01:43:07;;;;;;;1.60;1.43;;;;;;;22.58;100.00;97002.31;5009336;28;20233;-65
2021/08/05 01:45:34;;;;;;;2.17;1.50;;;;;;;22.59;100.00;97001.50;5005022;28;20300;-65
2021/08/05 01:48:01;;;;;;;1.60;1.50;;;;;;;22.58;100.00;97005.72;4993081;28;20313;-66
2021/08/05 01:50:28;;;;;;;2.40;1.40;;;;;;;22.54;100.00;96992.84;4982996;28;20290;-65
2021/08/05 01:52:54;;;;;;;1.60;1.50;;;;;;;22.40;100.00;96977.22;4994079;28;20289;-64
2021/08/05 01:55:21;;;;;;;1.50;1.40;;;;;;;22.59;100.00;96999.75;4990131;28;20261;-65
2021/08/05 01:57:47;;;;;;;1.63;1.53;;;;;;;22.61;100.00;97002.34;5014454;28;20240;-66
2021/08/05 02:00:14;;;;;;;1.70;1.60;;;;;;;21.85;100.00;96868.75;5004670;28;20728;-65
2021/08/05 02:02:41;;;;;;;1.57;1.47;;;;;;;22.52;100.00;96981.72;5000348;28;20234;-65
2021/08/05 02:05:15;;;;;;;1.50;1.40;;;;;;;22.27;100.00;96936.03;4993236;28;20206;-65
2021/08/05 02:07:46;;;;;;;1.43;1.33;;;;;;;22.61;100.00;96985.28;4983865;28;20708;-66
2021/08/05 02:10:18;;;;;;;1.67;1.57;;;;;;;22.53;100.00;96975.78;5011327;28;20226;-64
2021/08/05 02:12:47;;;;;;;1.60;1.50;;;;;;;18.70;100.00;96315.53;5001623;28;20313;-66
2021/08/05 02:15:14;;;;;;;1.73;1.63;;;;;;;22.63;100.00;96990.44;4998544;28;20254;-65
2021/08/05 02:17:42;;;;;;;1.70;1.60;;;;;;;22.62;100.00;96983.59;5013422;28;20238;-65
2021/08/05 02:20:10;;;;;;;1.60;1.50;;;;;;;22.57;100.00;96977.53;4998016;28;20198;-66
2021/08/05 02:22:39;;;;;;;1.57;1.47;;;;;;;22.61;100.00;96989.53;5006278;28;20268;-64
2021/08/05 02:25:07;;;;;;;1.53;1.40;;;;;;;22.59;100.00;96983.56;5006957;28;20654;-65
2021/08/05 02:27:33;;;;;;;1.70;1.50;;;;;;;22.57;100.00;96983.53;5002561;28;20238;-66
2021/08/05 02:30:00;;;;;;;1.43;1.33;;;;;;;22.56;100.00;96984.34;4992427;28;20282;-65
2021/08/05 02:32:27;;;;;;;1.60;1.50;;;;;;;21.99;100.00;96888.63;5005740;28;20222;-64
2021/08/05 02:34:54;;;;;;;1.53;1.43;;;;;;;22.42;100.00;96964.44;5002401;28;20212;-65
2021/08/05 02:37:21;;;;;;;1.40;1.30;;;;;;;22.50;100.00;96973.13;5013742;23;20349;-62
2021/08/05 02:39:47;;;;;;;1.63;1.53;;;;;;;22.52;100.00;96971.47;4996612;28;20647;-62
2021/08/05 02:42:14;;;;;;;1.60;1.50;;;;;;;21.99;100.00;96875.81;4980786;28;20778;-61
2021/08/05 02:44:40;;;;;;;1.40;1.30;;;;;;;22.51;100.00;96956.94;4986885;28;20234;-61
2021/08/05 02:47:07;;;;;;;2.03;1.40;;;;;;;22.57;100.00;96970.72;4960574;28;20262;-60
2021/08/05 02:49:33;;;;;;;1.63;1.53;;;;;;;22.53;100.00;96961.25;5001557;28;20762;-59
2021/08/05 02:52:00;;;;;;;1.77;1.60;;;;;;;22.58;100.00;96980.13;4996538;28;20211;-60
2021/08/05 02:54:27;;;;;;;1.70;1.60;;;;;;;22.56;100.00;96965.59;4969521;28;20464;-61
2021/08/05 02:56:53;;;;;;;1.50;1.40;;;;;;;22.45;100.00;96944.88;4989637;28;20255;-60
2021/08/05 02:59:20;;;;;;;1.87;1.40;;;;;;;22.58;100.00;96967.31;4967571;28;20649;-61
2021/08/05 03:01:46;;;;;;;2.07;1.70;;;;;;;22.59;100.00;96974.16;4989514;28;20290;-60
2021/08/05 03:04:13;;;;;;;1.90;1.40;;;;;;;22.60;100.00;96972.47;4990054;28;20413;-60
2021/08/05 03:06:40;;;;;;;1.63;1.53;;;;;;;22.60;100.00;96969.91;4989396;28;20407;-61
2021/08/05 03:09:06;;;;;;;2.43;1.50;;;;;;;22.55;100.00;96964.72;4985784;28;20227;-61
2021/08/05 03:11:33;;;;;;;1.63;1.53;;;;;;;22.53;100.00;96958.69;4989333;28;20369;-61
2021/08/05 03:13:59;;;;;;;1.70;1.60;;;;;;;22.61;100.00;96974.19;4984925;28;20207;-60
2021/08/05 03:16:26;;;;;;;1.70;1.60;;;;;;;22.62;100.00;96973.38;4988785;28;20227;-62
2021/08/05 03:18:53;;;;;;;1.60;1.50;;;;;;;21.99;100.00;96860.47;4989720;28;20274;-61
2021/08/05 03:21:19;;;;;;;1.53;1.43;;;;;;;22.61;100.00;96969.94;4989207;28;20660;-61
2021/08/05 03:23:46;;;;;;;1.50;1.40;;;;;;;22.62;100.00;96965.69;4989448;28;20207;-60
2021/08/05 03:26:13;;;;;;;1.87;1.70;;;;;;;22.62;100.00;96965.69;4986759;28;20310;-61
2021/08/05 03:28:39;;;;;;;1.67;1.57;;;;;;;22.62;100.00;96965.69;4998777;28;20239;-60
2021/08/05 03:31:06;;;;;;;1.57;1.47;;;;;;;22.48;100.00;96944.06;4997216;28;20231;-61
2021/08/05 03:33:33;;;;;;;1.47;1.37;;;;;;;22.58;100.00;96962.19;5001419;28;20235;-60
2021/08/05 03:35:59;;;;;;;1.60;1.50;;;;;;;22.56;100.00;96961.28;4992173;28;20266;-60
2021/08/05 03:38:26;;;;;;;1.50;1.37;;;;;;;22.56;100.00;96960.47;4989812;28;20257;-61
2021/08/05 03:40:54;;;;;;;1.50;1.40;;;;;;;22.56;100.00;96963.03;4992501;28;20203;-60
2021/08/05 03:43:21;;;;;;;2.27;1.60;;;;;;;22.55;100.00;96964.72;4999546;28;20234;-60
2021/08/05 03:45:48;;;;;;;1.50;1.40;;;;;;;22.56;100.00;96961.28;4992603;28;20258;-60
2021/08/05 03:48:14;;;;;;;1.63;1.53;;;;;;;22.08;100.00;96875.13;4992282;28;20203;-60
2021/08/05 03:50:41;;;;;;;1.63;1.53;;;;;;;22.55;100.00;96962.16;4991434;28;20304;-60
2021/08/05 03:53:08;;;;;;;1.93;1.50;;;;;;;22.55;100.00;96959.59;5000888;28;20234;-61
2021/08/05 03:55:34;;;;;;;1.90;1.70;;;;;;;22.53;100.00;96960.41;4991211;28;20277;-61
2021/08/05 03:58:01;;;;;;;1.60;1.50;;;;;;;22.57;100.00;96965.59;4977161;28;20238;-62
2021/08/05 04:00:28;;;;;;;3.60;1.60;;;;;;;22.58;100.00;96967.31;4991863;28;20222;-61
2021/08/05 04:02:54;;;;;;;1.60;1.50;;;;;;;22.59;100.00;96963.91;4991273;28;20209;-61
2021/08/05 04:05:21;;;;;;;3.60;1.63;;;;;;;22.58;100.00;96958.75;4991599;28;20574;-62
2021/08/05 04:07:48;;;;;;;1.80;1.70;;;;;;;22.54;100.00;96950.19;4991555;28;20289;-60
2021/08/05 04:10:15;;;;;;;1.67;1.57;;;;;;;22.61;100.00;96963.94;4986187;28;20227;-60
2021/08/05 04:12:42;;;;;;;1.80;1.70;;;;;;;22.60;100.00;96963.09;4992785;28;20227;-61
2021/08/05 04:15:08;;;;;;;1.53;1.43;;;;;;;22.60;100.00;96957.97;4991856;28;20211;-60
2021/08/05 04:17:35;;;;;;;2.97;1.50;;;;;;;22.62;100.00;96952.88;4992034;28;20246;-60
2021/08/05 04:20:03;;;;;;;1.57;1.47;;;;;;;22.61;100.00;96953.69;5002632;28;20282;-60
2021/08/05 04:22:29;;;;;;;2.00;1.47;;;;;;;22.62;100.00;96955.44;4991572;28;20234;-60
2021/08/05 04:24:56;;;;;;;2.73;1.47;;;;;;;22.62;100.00;96958.00;4991115;28;20261;-64
2021/08/05 04:27:23;;;;;;;1.70;1.60;;;;;;;22.61;100.00;96958.81;4990325;28;20731;-60
2021/08/05 04:29:50;;;;;;;2.77;1.77;;;;;;;22.62;100.00;96955.44;4981017;28;20673;-61
2021/08/05 04:32:16;;;;;;;2.43;2.23;;;;;;;22.61;100.00;96957.13;4990935;28;20648;-61
2021/08/05 04:34:43;;;;;;;2.60;2.40;;;;;;;22.62;100.00;96960.56;4991575;28;20230;-60
2021/08/05 04:37:09;;;;;;;2.43;2.23;;;;;;;22.61;100.00;96962.25;4990280;28;20238;-60
2021/08/05 04:39:38;;;;;;;3.10;2.80;;;;;;;22.57;100.00;96952.81;4987193;28;20195;-61
2021/08/05 04:42:04;;;;;;;7.00;4.20;;;;;;;22.58;100.00;96958.75;4991268;28;20237;-60
2021/08/05 04:44:31;;;;;;;7.10;4.10;;;;;;;22.56;100.00;96960.47;4992298;28;20257;-60
2021/08/05 04:46:57;;;;;;;6.83;5.20;;;;;;;22.58;100.00;96966.44;4992025;28;20257;-61
2021/08/05 04:49:24;;;;;;;4.77;4.33;;;;;;;22.56;100.00;96968.97;4990712;28;20250;-62
2021/08/05 04:51:53;;;;;;;6.73;5.70;;;;;;;22.56;100.00;96956.19;4990216;28;20233;-60
2021/08/05 04:54:21;;;;;;;7.07;6.20;;;;;;;22.59;100.00;96960.50;4990618;28;20199;-61
2021/08/05 04:56:47;;;;;;;7.53;6.23;;;;;;;22.59;100.00;96955.38;4971322;28;20247;-61
2021/08/05 04:59:14;;;;;;;9.07;7.40;;;;;;;22.55;100.00;96949.34;4977604;28;20208;-61
2021/08/05 05:01:40;;;;;;;8.60;7.53;;;;;;;22.60;100.00;96960.53;4978859;28;20242;-63
2021/08/05 05:04:07;;;;;;;8.00;6.83;;;;;;;22.62;100.00;96958.00;4962695;28;20226;-60
2021/08/05 05:06:34;;;;;;;8.77;6.87;;;;;;;22.61;100.00;96953.69;4989619;28;20273;-60
2021/08/05 05:09:01;;;;;;;8.60;6.63;;;;;;;22.56;100.00;96953.63;4987857;28;20262;-60
2021/08/05 05:11:27;;;;;;;9.47;6.47;;;;;;;22.62;100.00;96963.13;4989705;28;20233;-61
2021/08/05 05:13:54;;;;;;;7.67;6.40;;;;;;;22.54;100.00;96950.19;4988366;28;20203;-60
2021/08/05 05:16:20;;;;;;;9.13;6.13;;;;;;;22.63;100.00;96957.16;4987959;28;20660;-61
2021/08/05 05:18:47;;;;;;;10.90;6.73;;;;;;;22.57;100.00;96941.69;4990036;28;20199;-60
2021/08/05 05:21:14;;;;;;;9.63;6.97;;;;;;;22.63;100.00;96957.16;5000395;28;20298;-61
2021/08/05 05:23:40;;;;;;;8.57;6.50;;;;;;;22.59;100.00;96945.97;4990490;28;20241;-60
2021/08/05 05:26:07;;;;;;;9.23;7.53;;;;;;;22.48;100.00;96927.00;4979180;28;20258;-60
2021/08/05 05:28:33;;;;;;;9.23;6.87;;;;;;;22.65;100.00;96955.47;4973832;28;20294;-61
2021/08/05 05:31:00;;;;;;;9.63;6.40;;;;;;;22.65;100.00;96951.19;4989997;28;20247;-60
2021/08/05 05:33:27;;;;;;;8.43;6.77;;;;;;;22.65;100.00;96948.63;4988648;28;20231;-60
2021/08/05 05:35:53;;;;;;;7.57;6.50;;;;;;;22.65;100.00;96943.50;4989899;28;20332;-60
2021/08/05 05:38:20;;;;;;;7.50;6.77;;;;;;;22.65;100.00;96943.50;4987356;28;20226;-61
2021/08/05 05:40:49;;;;;;;9.10;6.80;;;;;;;22.60;100.00;96936.59;4987371;28;20653;-60
2021/08/05 05:43:16;;;;;;;6.63;6.03;;;;;;;22.57;100.00;96942.56;4960769;28;20763;-60
2021/08/05 05:45:43;;;;;;;6.77;6.07;;;;;;;22.60;100.00;96941.72;4972793;28;20250;-60
2021/08/05 05:48:10;;;;;;;9.97;6.20;;;;;;;22.60;100.00;96954.53;4965608;28;20211;-60
2021/08/05 05:50:37;;;;;;;10.90;6.73;;;;;;;22.56;100.00;96945.94;4973501;28;20754;-60
2021/08/05 05:53:03;;;;;;;8.03;6.47;;;;;;;22.56;100.00;96951.06;4989959;28;20207;-61
2021/08/05 05:55:30;;;;;;;10.10;6.20;;;;;;;22.57;100.00;96949.38;4989717;28;20298;-61
2021/08/05 05:57:59;;;;;;;6.00;5.40;;;;;;;22.56;100.00;96952.78;4989146;28;20286;-60
2021/08/05 06:00:26;;;;;;;7.10;5.23;;;;;;;22.55;100.00;96959.59;4989717;28;20230;-59
2021/08/05 06:02:52;;;;;;;8.97;5.47;;;;;;;22.56;100.00;96952.78;4992495;28;20242;-61
2021/08/05 06:05:19;;;;;;;6.33;5.20;;;;;;;22.53;100.00;96956.13;4991965;28;20269;-60
2021/08/05 06:07:47;;;;;;;5.50;5.00;;;;;;;22.59;100.00;96960.50;4987909;28;20291;-61
2021/08/05 06:10:16;;;;;;;7.77;4.87;;;;;;;22.59;100.00;96957.94;4967888;28;20207;-61
2021/08/05 06:12:43;;;;;;;5.70;5.20;;;;;;;22.59;100.00;96957.94;4990814;28;20199;-60
2021/08/05 06:15:10;;;;;;;4.97;4.43;;;;;;;22.57;100.00;96959.59;5005883;28;20234;-60
2021/08/05 06:17:37;;;;;;;7.27;4.87;;;;;;;22.58;100.00;96963.88;5001594;28;20250;-60
2021/08/05 06:20:04;;;;;;;10.87;5.17;;;;;;;22.57;100.00;96967.28;4992115;28;20281;-61
2021/08/05 06:22:30;;;;;;;11.10;6.57;;;;;;;22.59;100.00;96966.47;4984531;28;20226;-60
2021/08/05 06:24:57;;;;;;;6.73;6.03;;;;;;;22.59;100.00;96966.47;4991933;28;20238;-60
2021/08/05 06:27:24;;;;;;;6.70;5.67;;;;;;;22.59;100.00;96969.03;4990117;28;20310;-61
2021/08/05 06:29:51;;;;;;;6.17;5.40;;;;;;;22.59;100.00;96969.03;4990248;28;20246;-61
2021/08/05 06:32:17;;;;;;;5.60;5.00;;;;;;;22.58;100.00;96959.63;4989159;28;20265;-60
2021/08/05 06:34:44;;;;;;;5.90;5.30;;;;;;;22.60;100.00;96969.91;4990475;28;20241;-62
2021/08/05 06:37:10;;;;;;;6.23;4.97;;;;;;;22.60;100.00;96969.91;4991189;28;20262;-62
2021/08/05 06:39:37;;;;;;;5.87;4.67;;;;;;;22.60;100.00;96970.78;4989838;28;20234;-62
2021/08/05 06:42:03;;;;;;;4.83;4.43;;;;;;;22.60;100.00;96972.47;4990463;28;20764;-60
2021/08/05 06:44:34;;;;;;;5.70;4.80;;;;;;;22.61;100.00;96975.06;4992974;28;20231;-62
2021/08/05 06:47:03;;;;;;;6.47;5.37;;;;;;;22.61;100.00;96976.75;4974295;28;20712;-60
2021/08/05 06:49:30;;;;;;;8.23;5.13;;;;;;;22.62;100.00;96981.03;4991975;28;20289;-60
2021/08/05 06:51:56;;;;;;;5.07;4.37;;;;;;;22.52;100.00;96959.53;4992659;28;20639;-61
2021/08/05 06:54:23;;;;;;;5.30;4.53;;;;;;;22.59;100.00;96981.00;4995348;28;20222;-61
2021/08/05 06:56:50;;;;;;;6.20;4.90;;;;;;;22.42;100.00;96949.97;4993449;28;20261;-61
2021/08/05 06:59:16;;;;;;;9.70;7.47;;;;;;;22.56;100.00;96976.66;4999745;28;20290;-60
2021/08/05 07:01:43;;;;;;;15.07;7.00;;;;;;;22.48;100.00;96961.97;4991245;28;20753;-60
2021/08/05 07:04:11;;;;;;;11.63;8.17;;;;;;;22.55;100.00;96972.38;4994118;28;20750;-60
2021/08/05 07:06:37;;;;;;;10.90;8.70;;;;;;;22.55;100.00;96974.94;4991736;28;20267;-61
2021/08/05 07:09:04;;;;;;;14.60;9.67;;;;;;;22.56;100.00;96971.53;4981237;28;20226;-60
2021/08/05 07:11:31;;;;;;;10.97;8.60;;;;;;;22.57;100.00;96974.97;4992403;28;21295;-61
2021/08/05 07:13:57;;;;;;;12.10;10.47;;;;;;;22.58;100.00;96979.25;4992037;28;20677;-60
2021/08/05 07:16:24;;;;;;;12.47;9.70;;;;;;;22.59;100.00;96973.31;4991294;28;20250;-61
2021/08/05 07:18:50;;;;;;;11.63;10.43;;;;;;;22.43;100.00;96949.09;4992276;28;20195;-61
2021/08/05 07:21:17;;;;;;;15.07;10.93;;;;;;;22.60;100.00;96967.34;4981034;28;20238;-62
2021/08/05 07:23:44;;;;;;;12.67;11.37;;;;;;;22.60;100.00;96970.78;4989858;28;20290;-60
2021/08/05 07:26:10;;;;;;;15.40;11.47;;;;;;;22.61;100.00;96977.63;4992530;28;20305;-60
2021/08/05 07:28:37;;;;;;;15.63;12.43;;;;;;;22.62;100.00;96966.53;4984326;28;20622;-61
2021/08/05 07:31:03;;;;;;;13.13;11.20;;;;;;;22.64;100.00;96969.09;4992343;28;20227;-61
2021/08/05 07:33:30;;;;;;;13.73;11.03;;;;;;;22.62;100.00;96965.69;4994499;28;20234;-62
2021/08/05 07:35:57;;;;;;;13.33;11.27;;;;;;;22.64;100.00;96959.72;4991517;28;20265;-60
2021/08/05 07:38:23;;;;;;;12.37;11.07;;;;;;;22.64;100.00;96967.41;4994190;28;20238;-62
2021/08/05 07:40:50;;;;;;;12.67;10.90;;;;;;;22.63;100.00;96965.69;4991593;28;20238;-60
2021/08/05 07:43:16;;;;;;;15.87;11.50;;;;;;;22.65;100.00;96965.72;4992260;28;20286;-61
2021/08/05 07:45:43;;;;;;;19.77;11.17;;;;;;;22.66;100.00;96967.44;4988788;28;20215;-61
2021/08/05 07:48:10;;;;;;;17.30;11.00;;;;;;;22.63;100.00;96952.91;4991874;28;20668;-61
2021/08/05 07:50:36;;;;;;;12.70;10.67;;;;;;;22.68;100.00;96960.66;4992168;28;20269;-61
2021/08/05 07:53:03;;;;;;;14.20;10.23;;;;;;;22.51;100.00;96928.78;4991778;28;20264;-61
2021/08/05 07:55:31;;;;;;;15.97;10.63;;;;;;;22.69;100.00;96964.94;4992209;28;20202;-61
2021/08/05 07:57:57;;;;;;;16.00;9.57;;;;;;;22.62;100.00;96953.72;4992008;28;20306;-60
2021/08/05 08:00:24;;;;;;;11.23;9.73;;;;;;;22.66;100.00;96959.75;4991330;28;20249;-61
2021/08/05 08:02:50;;;;;;;11.37;10.13;;;;;;;22.63;100.00;96960.59;4990848;28;20195;-60
2021/08/05 08:05:17;;;;;;;10.53;9.40;;;;;;;22.57;100.00;96951.94;4991192;28;20692;-60
2021/08/05 08:07:44;;;;;;;12.43;9.07;;;;;;;22.60;100.00;96960.53;4991071;28;20273;-61
2021/08/05 08:10:11;;;;;;;9.30;8.13;;;;;;;22.60;100.00;96959.66;4990786;28;20626;-60
2021/08/05 08:12:38;;;;;;;10.07;8.07;;;;;;;22.60;100.00;96963.09;4987261;28;20226;-61
2021/08/05 08:15:05;;;;;;;12.43;8.17;;;;;;;22.60;100.00;96962.22;4990050;28;20202;-60
2021/08/05 08:17:32;;;;;;;8.93;7.83;;;;;;;22.61;100.00;96969.06;4990335;28;20242;-61
2021/08/05 08:19:59;;;;;;;8.90;7.77;;;;;;;22.56;100.00;96957.91;4985673;28;20234;-61
2021/08/05 08:22:25;;;;;;;8.83;7.63;;;;;;;22.01;100.00;96863.94;4990167;28;20597;-61
2021/08/05 08:24:52;;;;;;;10.03;7.63;;;;;;;22.61;100.00;96969.94;4990410;28;20231;-62
2021/08/05 08:27:19;;;;;;;8.03;7.23;;;;;;;22.62;100.00;96970.81;4989115;28;20261;-60
2021/08/05 08:29:46;;;;;;;8.87;7.53;;;;;;;22.62;100.00;96968.25;4984051;28;20278;-60
2021/08/05 08:32:12;;;;;;;10.27;7.40;;;;;;;22.63;100.00;96962.28;4990077;28;20223;-61
2021/08/05 08:34:39;;;;;;;8.67;7.30;;;;;;;22.62;100.00;96963.97;4990068;28;20239;-61
2021/08/05 08:37:06;;;;;;;8.10;6.90;;;;;;;22.63;100.00;96965.69;5051822;23;20257;-68
2021/08/05 08:39:32;;;;;;;8.20;7.23;;;;;;;22.35;100.00;96917.38;4991289;28;20288;-69
2021/08/05 08:41:59;;;;;;;8.00;7.10;;;;;;;22.41;100.00;96932.00;4991181;28;20225;-73
2021/08/05 08:44:25;;;;;;;7.87;6.93;;;;;;;22.65;100.00;96965.72;4995212;28;20199;-69
2021/08/05 08:46:52;;;;;;;10.70;7.87;;;;;;;22.64;100.00;96969.09;4994212;28;20234;-73
2021/08/05 08:49:23;;;;;;;7.70;6.87;;;;;;;22.63;100.00;96968.25;5000608;28;20213;-68
2021/08/05 08:51:49;;;;;;;8.10;7.07;;;;;;;22.30;100.00;96911.34;4969425;28;20242;-73
2021/08/05 08:54:16;;;;;;;7.00;6.30;;;;;;;22.64;100.00;96964.84;4993523;28;20202;-68
2021/08/05 08:56:42;;;;;;;7.73;6.40;;;;;;;22.48;100.00;96937.25;4993242;28;20598;-70
2021/08/05 08:59:09;;;;;;;7.93;7.13;;;;;;;22.65;100.00;96966.56;4992943;28;20229;-70
2021/08/05 09:01:39;;;;;;;7.70;6.90;;;;;;;22.55;100.00;96953.59;4988734;28;20285;-65
2021/08/05 09:04:07;;;;;;;7.67;6.90;;;;;;;22.65;100.00;96963.16;4999868;28;20203;-68
2021/08/05 09:06:35;;;;;;;7.77;6.30;;;;;;;22.65;100.00;96965.72;5007245;28;20256;-70
2021/08/05 09:09:04;;;;;;;7.57;6.77;;;;;;;22.50;100.00;96943.28;5007934;28;20206;-68
2021/08/05 09:11:33;;;;;;;7.67;6.53;;;;;;;22.62;100.00;96966.53;5003864;28;20218;-70
2021/08/05 09:14:00;;;;;;;7.50;6.60;;;;;;;22.33;100.00;96918.22;4995964;28;20206;-68
2021/08/05 09:16:29;;;;;;;8.07;6.37;;;;;;;22.49;100.00;96946.66;4987448;28;20233;-68
2021/08/05 09:19:16;;;;;;;7.40;6.67;;;;;;;22.59;100.00;96955.38;4998927;28;20205;-69
2021/08/05 09:22:01;;;;;;;7.50;6.80;;;;;;;21.76;100.00;96814.88;5004671;28;20552;-71
2021/08/05 09:24:29;;;;;;;6.97;6.00;;;;;;;22.50;100.00;96942.41;5007206;28;20226;-70
2021/08/05 09:27:02;;;;;;;7.30;6.60;;;;;;;21.94;100.00;96844.19;4989389;28;20218;-69
2021/08/05 09:29:29;;;;;;;9.67;6.60;;;;;;;22.59;100.00;96952.81;4987872;28;20219;-69
2021/08/05 09:31:58;;;;;;;10.83;7.20;;;;;;;22.55;100.00;96940.78;4991547;28;20242;-70
2021/08/05 09:34:40;;;;;;;9.13;6.90;;;;;;;22.60;100.00;96949.41;5005227;28;20207;-71
2021/08/05 09:37:08;;;;;;;8.07;5.97;;;;;;;22.29;100.00;96893.41;4989292;28;20233;-70
2021/08/05 09:39:39;;;;;;;7.30;6.13;;;;;;;22.61;100.00;96946.00;5004207;28;20718;-70
2021/08/05 09:42:07;;;;;;;7.70;6.30;;;;;;;22.62;100.00;96948.59;5007332;28;20229;-72
2021/08/05 09:44:36;;;;;;;7.10;6.40;;;;;;;22.37;100.00;96896.94;5005118;28;20194;-73
2021/08/05 09:47:22;;;;;;;10.40;6.70;;;;;;;22.63;100.00;96947.78;5005007;28;20226;-69
2021/08/05 09:49:51;;;;;;;8.17;6.13;;;;;;;22.63;100.00;96944.34;5004134;28;20587;-73
2021/08/05 09:52:28;;;;;;;17.70;6.30;;;;;;;22.64;100.00;96935.81;5005305;28;20290;-69
2021/08/05 09:54:55;;;;;;;8.70;6.10;;;;;;;22.65;100.00;96940.13;5010556;28;20205;-70
2021/08/05 09:57:29;;;;;;;7.93;6.63;;;;;;;22.64;100.00;96921.31;5010833;28;20647;-70
2021/08/05 09:59:56;;;;;;;7.80;6.40;;;;;;;22.66;100.00;96931.59;5011495;28;20194;-68
2021/08/05 10:02:25;;;;;;;9.37;6.00;;;;;;;22.51;100.00;96901.50;5008798;28;20229;-68
2021/08/05 10:04:53;;;;;;;7.90;6.03;;;;;;;22.28;100.00;96864.38;5010540;28;20597;-74
2021/08/05 10:07:20;;;;;;;7.77;5.80;;;;;;;22.65;100.00;96925.59;4988447;28;20217;-69
2021/08/05 10:09:56;;;;;;;9.47;6.60;;;;;;;22.57;100.00;96901.59;5011286;28;20217;-69
2021/08/05 10:12:31;;;;;;;7.70;5.60;;;;;;;22.15;100.00;96820.66;4999575;28;20746;-71
2021/08/05 10:15:11;;;;;;;7.93;5.83;;;;;;;22.64;100.00;96902.50;4992637;28;20198;-68
2021/08/05 10:17:39;;;;;;;9.03;6.13;;;;;;;22.53;100.00;96889.53;5010094;28;20222;-73
2021/08/05 10:20:08;;;;;;;8.17;5.63;;;;;;;22.40;100.00;96871.38;4994085;28;20206;-68
2021/08/05 10:22:35;;;;;;;9.40;5.97;;;;;;;22.57;100.00;96900.72;4993440;28;20225;-70
2021/08/05 10:25:02;;;;;;;6.37;5.77;;;;;;;22.60;100.00;96906.75;5003155;28;20202;-69
2021/08/05 10:27:29;;;;;;;8.63;6.00;;;;;;;22.52;100.00;96892.94;4997849;28;20309;-73
2021/08/05 10:29:56;;;;;;;6.83;5.13;;;;;;;22.51;100.00;96893.81;4995314;28;20289;-68
2021/08/05 10:32:22;;;;;;;9.20;5.47;;;;;;;22.41;100.00;96868.84;4983006;28;20302;-68
2021/08/05 10:34:50;;;;;;;11.77;5.90;;;;;;;22.56;100.00;96897.28;4985096;28;20393;-68
2021/08/05 10:37:17;;;;;;;6.00;5.40;;;;;;;22.53;100.00;96881.88;4987811;28;20269;-68
2021/08/05 10:39:45;;;;;;;7.03;5.40;;;;;;;22.58;100.00;96887.06;4970897;28;20309;-73
2021/08/05 10:42:19;;;;;;;8.43;5.80;;;;;;;22.61;100.00;96899.91;4988507;28;20194;-71
2021/08/05 10:44:47;;;;;;;7.60;5.07;;;;;;;22.48;100.00;96873.25;4988441;28;20290;-65
2021/08/05 10:47:23;;;;;;;7.90;5.70;;;;;;;22.61;100.00;96887.97;4996647;28;20257;-68
2021/08/05 10:49:51;;;;;;;9.17;5.60;;;;;;;22.48;100.00;96867.25;4995545;28;20210;-69
2021/08/05 10:52:36;;;;;;;5.63;4.83;;;;;;;22.62;100.00;96897.38;4973437;28;20308;-67
2021/08/05 10:55:23;;;;;;;8.53;5.27;;;;;;;22.63;100.00;96896.56;5005992;28;20686;-70
2021/08/05 10:58:10;;;;;;;6.07;4.87;;;;;;;22.66;100.00;96905.97;5007661;28;20247;-68
2021/08/05 11:00:51;;;;;;;5.37;4.87;;;;;;;22.65;100.00;96899.97;5003888;28;20238;-73
2021/08/05 11:03:38;;;;;;;7.10;4.50;;;;;;;22.68;100.00;96894.91;4978132;28;20665;-70
2021/08/05 11:06:07;;;;;;;6.07;5.13;;;;;;;22.44;100.00;96860.38;5000685;28;20258;-69
2021/08/05 11:08:33;;;;;;;6.07;5.10;;;;;;;22.71;100.00;96899.22;4967457;28;20245;-73
2021/08/05 11:11:22;;;;;;;8.50;5.20;;;;;;;22.72;100.00;96900.94;4980251;28;20211;-70
2021/08/05 11:13:58;;;;;;;6.33;4.77;;;;;;;22.73;100.00;96905.22;5002631;28;20222;-69
2021/08/05 11:17:04;;;;;;;6.13;4.60;;;;;;;22.74;100.00;96894.97;5006161;28;20761;-71
2021/08/05 11:19:33;;;;;;;5.00;4.50;;;;;;;22.68;100.00;96886.38;5006181;28;20288;-69
2021/08/05 11:22:33;;;;;;;8.57;4.70;;;;;;;22.77;100.00;96901.88;4984604;28;20286;-68
2021/08/05 11:25:00;;;;;;;5.70;4.80;;;;;;;22.77;100.00;96897.59;5005027;28;20345;-68
2021/08/05 11:27:26;;;;;;;7.57;4.90;;;;;;;22.77;100.00;96899.31;4991543;28;20677;-75
2021/08/05 11:29:53;;;;;;;5.87;5.27;;;;;;;22.49;100.00;96849.34;4991881;28;20199;-71